KCKP

Details ICAO KCKP
Name CHEROKEE MUNI
Region United States
Timezone America/Chicago (UTC-6.0)
Plans Departing 0
Arriving 0
Stats Elevation 1,226 ft / 374 m (AMSL)
Location 42.732122° -95.556098°
Runways 2
Magnetic Variation 2.201° E
Sunrise 2017-12-13 13:45:48 UTC / 2017-12-13 07:45:48 Local
Sunset 2017-12-13 22:50:08 UTC / 2017-12-13 16:50:08 Local
Advertisement - Login to hide

Runways

ID Width Length Bearing (true) Bearing (mag) Surface Threshold Offset Overrun Length
01 100 ft / 30 m 1,983 ft / 604 m 10.96° 8.76° Grass 0 ft / 0 m 0 ft / 0 m
18 75 ft / 23 m 4,004 ft / 1,221 m 182.72° 180.52° Concrete 200 ft / 61 m 0 ft / 0 m
19 100 ft / 30 m 1,983 ft / 604 m 190.96° 188.76° Grass 0 ft / 0 m 0 ft / 0 m
36 75 ft / 23 m 4,004 ft / 1,221 m 2.72° 0.52° Concrete 0 ft / 0 m 0 ft / 0 m

Map

Weather


0- 5 10 15 20 25 30 35+ Temperature / ° C

Clouds and Precipitation
Forecast for 2017-12-13 18:00 UTC. Updated 2 hours ago

Ground ~20,000 ft ~40,000 ft Winds

METAR

KCKP 131655Z AUTO 34023G28KT 10SM OVC022 05/01 A2970 RMK AO2 T00470009

TAF

Not found

Frequencies

Recorded 119.22 MHz AWOS 3
Unicom 122.80 MHz CTAF/UNICOM
Warning: Do not use this data for real-world aviation or navigation. No guarantee of current accuracy is given.